sensor_id;sensor_type;location;lat;lon;timestamp;temperature;humidity
44990;DHT22;30723;51.206;3.326;2024-01-06T00:02:00;7.50;99.90
44990;DHT22;30723;51.206;3.326;2024-01-06T00:04:27;7.40;99.90
44990;DHT22;30723;51.206;3.326;2024-01-06T00:06:53;7.30;99.90
44990;DHT22;30723;51.206;3.326;2024-01-06T00:09:19;7.30;99.90
44990;DHT22;30723;51.206;3.326;2024-01-06T00:11:45;7.30;99.90
44990;DHT22;30723;51.206;3.326;2024-01-06T00:14:10;7.40;99.90
44990;DHT22;30723;51.206;3.326;2024-01-06T00:16:36;7.40;99.90
44990;DHT22;30723;51.206;3.326;2024-01-06T00:19:02;7.50;99.90
44990;DHT22;30723;51.206;3.326;2024-01-06T00:21:28;7.40;99.90
44990;DHT22;30723;51.206;3.326;2024-01-06T00:23:53;7.30;99.90
44990;DHT22;30723;51.206;3.326;2024-01-06T00:26:21;7.40;99.90
44990;DHT22;30723;51.206;3.326;2024-01-06T00:28:47;7.40;99.90
44990;DHT22;30723;51.206;3.326;2024-01-06T00:31:15;7.40;99.90
44990;DHT22;30723;51.206;3.326;2024-01-06T00:33:42;7.50;99.90
44990;DHT22;30723;51.206;3.326;2024-01-06T00:36:08;7.50;99.90
44990;DHT22;30723;51.206;3.326;2024-01-06T00:38:34;7.40;99.90
44990;DHT22;30723;51.206;3.326;2024-01-06T00:41:01;7.40;99.90
44990;DHT22;30723;51.206;3.326;2024-01-06T00:43:27;7.50;99.90
44990;DHT22;30723;51.206;3.326;2024-01-06T00:45:52;7.50;99.90
44990;DHT22;30723;51.206;3.326;2024-01-06T00:48:18;7.50;99.90
44990;DHT22;30723;51.206;3.326;2024-01-06T00:50:44;7.50;99.90
44990;DHT22;30723;51.206;3.326;2024-01-06T00:53:11;7.50;99.90
44990;DHT22;30723;51.206;3.326;2024-01-06T00:55:36;7.50;99.90
44990;DHT22;30723;51.206;3.326;2024-01-06T00:58:02;7.40;99.90
44990;DHT22;30723;51.206;3.326;2024-01-06T01:00:28;7.40;99.90
44990;DHT22;30723;51.206;3.326;2024-01-06T01:02:54;7.30;99.90
44990;DHT22;30723;51.206;3.326;2024-01-06T01:05:19;7.30;99.90
44990;DHT22;30723;51.206;3.326;2024-01-06T01:07:45;7.40;99.90
44990;DHT22;30723;51.206;3.326;2024-01-06T01:10:11;7.40;99.90
44990;DHT22;30723;51.206;3.326;2024-01-06T01:12:37;7.40;99.90
44990;DHT22;30723;51.206;3.326;2024-01-06T01:15:03;7.40;99.90
44990;DHT22;30723;51.206;3.326;2024-01-06T01:17:29;7.50;99.90
44990;DHT22;30723;51.206;3.326;2024-01-06T01:19:55;7.50;99.90
44990;DHT22;30723;51.206;3.326;2024-01-06T01:22:21;7.40;99.90
44990;DHT22;30723;51.206;3.326;2024-01-06T01:24:46;7.50;99.90
44990;DHT22;30723;51.206;3.326;2024-01-06T01:27:12;7.50;99.90
44990;DHT22;30723;51.206;3.326;2024-01-06T01:29:40;7.50;99.90
44990;DHT22;30723;51.206;3.326;2024-01-06T01:32:06;7.50;99.90
44990;DHT22;30723;51.206;3.326;2024-01-06T01:34:32;7.40;99.90
44990;DHT22;30723;51.206;3.326;2024-01-06T01:36:57;7.30;99.90
44990;DHT22;30723;51.206;3.326;2024-01-06T01:39:23;7.40;99.90
44990;DHT22;30723;51.206;3.326;2024-01-06T01:41:49;7.40;99.90
44990;DHT22;30723;51.206;3.326;2024-01-06T01:44:15;7.50;99.90
44990;DHT22;30723;51.206;3.326;2024-01-06T01:46:41;7.60;99.90
44990;DHT22;30723;51.206;3.326;2024-01-06T01:49:07;7.50;99.90
44990;DHT22;30723;51.206;3.326;2024-01-06T01:51:34;7.40;99.90
44990;DHT22;30723;51.206;3.326;2024-01-06T01:54:05;7.30;99.90
44990;DHT22;30723;51.206;3.326;2024-01-06T01:56:32;7.20;99.90
44990;DHT22;30723;51.206;3.326;2024-01-06T01:59:11;7.20;99.90
44990;DHT22;30723;51.206;3.326;2024-01-06T02:01:37;7.20;99.90
44990;DHT22;30723;51.206;3.326;2024-01-06T02:04:04;7.20;99.90
44990;DHT22;30723;51.206;3.326;2024-01-06T02:06:29;7.20;99.90
44990;DHT22;30723;51.206;3.326;2024-01-06T02:08:55;7.20;99.90
44990;DHT22;30723;51.206;3.326;2024-01-06T02:11:21;7.40;99.90
44990;DHT22;30723;51.206;3.326;2024-01-06T02:13:47;7.40;99.90
44990;DHT22;30723;51.206;3.326;2024-01-06T02:16:12;7.50;99.90
44990;DHT22;30723;51.206;3.326;2024-01-06T02:18:38;7.40;99.90
44990;DHT22;30723;51.206;3.326;2024-01-06T02:21:05;7.40;99.90
44990;DHT22;30723;51.206;3.326;2024-01-06T02:23:34;7.40;99.90
44990;DHT22;30723;51.206;3.326;2024-01-06T02:26:00;7.40;99.90
44990;DHT22;30723;51.206;3.326;2024-01-06T02:28:26;7.40;99.90
44990;DHT22;30723;51.206;3.326;2024-01-06T02:30:52;7.30;99.90
44990;DHT22;30723;51.206;3.326;2024-01-06T02:33:18;7.40;99.90
44990;DHT22;30723;51.206;3.326;2024-01-06T02:35:49;7.40;99.90
44990;DHT22;30723;51.206;3.326;2024-01-06T02:38:15;7.40;99.90
44990;DHT22;30723;51.206;3.326;2024-01-06T02:40:41;7.40;99.90
44990;DHT22;30723;51.206;3.326;2024-01-06T02:43:08;7.40;99.90
44990;DHT22;30723;51.206;3.326;2024-01-06T02:45:34;7.40;99.90
44990;DHT22;30723;51.206;3.326;2024-01-06T02:48:00;7.40;99.90
44990;DHT22;30723;51.206;3.326;2024-01-06T02:50:26;7.30;99.90
44990;DHT22;30723;51.206;3.326;2024-01-06T02:52:52;7.40;99.90
44990;DHT22;30723;51.206;3.326;2024-01-06T02:55:18;7.30;99.90
44990;DHT22;30723;51.206;3.326;2024-01-06T02:57:43;7.30;99.90
44990;DHT22;30723;51.206;3.326;2024-01-06T03:00:09;7.30;99.90
44990;DHT22;30723;51.206;3.326;2024-01-06T03:02:35;7.20;99.90
44990;DHT22;30723;51.206;3.326;2024-01-06T03:05:03;7.20;99.90
44990;DHT22;30723;51.206;3.326;2024-01-06T03:07:29;7.30;99.90
44990;DHT22;30723;51.206;3.326;2024-01-06T03:09:55;7.20;99.90
44990;DHT22;30723;51.206;3.326;2024-01-06T03:12:20;7.20;99.90
44990;DHT22;30723;51.206;3.326;2024-01-06T03:14:47;7.20;99.90
44990;DHT22;30723;51.206;3.326;2024-01-06T03:17:12;7.20;99.90
44990;DHT22;30723;51.206;3.326;2024-01-06T03:19:39;7.20;99.90
44990;DHT22;30723;51.206;3.326;2024-01-06T03:22:05;7.20;99.90
44990;DHT22;30723;51.206;3.326;2024-01-06T03:24:30;7.20;99.90
44990;DHT22;30723;51.206;3.326;2024-01-06T03:26:57;7.30;99.90
44990;DHT22;30723;51.206;3.326;2024-01-06T03:29:22;7.30;99.90
44990;DHT22;30723;51.206;3.326;2024-01-06T03:31:48;7.30;99.90
44990;DHT22;30723;51.206;3.326;2024-01-06T03:34:14;7.30;99.90
44990;DHT22;30723;51.206;3.326;2024-01-06T03:36:40;7.30;99.90
44990;DHT22;30723;51.206;3.326;2024-01-06T03:39:07;7.40;99.90
44990;DHT22;30723;51.206;3.326;2024-01-06T03:41:33;7.40;99.90
44990;DHT22;30723;51.206;3.326;2024-01-06T03:43:59;7.30;99.90
44990;DHT22;30723;51.206;3.326;2024-01-06T03:46:25;7.30;99.90
44990;DHT22;30723;51.206;3.326;2024-01-06T03:48:51;7.20;99.90
44990;DHT22;30723;51.206;3.326;2024-01-06T03:51:17;7.20;99.90
44990;DHT22;30723;51.206;3.326;2024-01-06T03:53:42;7.20;99.90
44990;DHT22;30723;51.206;3.326;2024-01-06T03:56:08;7.20;99.90
44990;DHT22;30723;51.206;3.326;2024-01-06T03:58:34;7.20;99.90
44990;DHT22;30723;51.206;3.326;2024-01-06T04:01:00;7.20;99.90
44990;DHT22;30723;51.206;3.326;2024-01-06T04:03:26;7.20;99.90
44990;DHT22;30723;51.206;3.326;2024-01-06T04:05:52;7.10;99.90
44990;DHT22;30723;51.206;3.326;2024-01-06T04:08:18;7.10;99.90
44990;DHT22;30723;51.206;3.326;2024-01-06T04:10:44;7.20;99.90
44990;DHT22;30723;51.206;3.326;2024-01-06T04:13:15;7.10;99.90
44990;DHT22;30723;51.206;3.326;2024-01-06T04:15:41;7.10;99.90
44990;DHT22;30723;51.206;3.326;2024-01-06T04:18:07;7.10;99.90
44990;DHT22;30723;51.206;3.326;2024-01-06T04:20:33;7.20;99.90
44990;DHT22;30723;51.206;3.326;2024-01-06T04:22:59;7.10;99.90
44990;DHT22;30723;51.206;3.326;2024-01-06T04:25:25;7.10;99.90
44990;DHT22;30723;51.206;3.326;2024-01-06T04:27:50;7.10;99.90
44990;DHT22;30723;51.206;3.326;2024-01-06T04:30:17;7.00;99.90
44990;DHT22;30723;51.206;3.326;2024-01-06T04:32:43;7.10;99.90
44990;DHT22;30723;51.206;3.326;2024-01-06T04:35:09;7.10;99.90
44990;DHT22;30723;51.206;3.326;2024-01-06T04:37:35;7.10;99.90
44990;DHT22;30723;51.206;3.326;2024-01-06T04:40:01;7.10;99.90
44990;DHT22;30723;51.206;3.326;2024-01-06T04:42:26;7.00;99.90
44990;DHT22;30723;51.206;3.326;2024-01-06T04:44:52;7.00;99.90
44990;DHT22;30723;51.206;3.326;2024-01-06T04:47:18;7.00;99.90
44990;DHT22;30723;51.206;3.326;2024-01-06T04:49:44;7.00;99.90
44990;DHT22;30723;51.206;3.326;2024-01-06T04:52:10;7.00;99.90
44990;DHT22;30723;51.206;3.326;2024-01-06T04:54:36;7.00;99.90
44990;DHT22;30723;51.206;3.326;2024-01-06T04:57:02;6.90;99.90
44990;DHT22;30723;51.206;3.326;2024-01-06T04:59:29;6.90;99.90
44990;DHT22;30723;51.206;3.326;2024-01-06T05:01:57;6.90;99.90
44990;DHT22;30723;51.206;3.326;2024-01-06T05:04:23;6.90;99.90
44990;DHT22;30723;51.206;3.326;2024-01-06T05:06:48;7.00;99.90
44990;DHT22;30723;51.206;3.326;2024-01-06T05:09:15;6.90;99.90
44990;DHT22;30723;51.206;3.326;2024-01-06T05:11:43;7.00;99.90
44990;DHT22;30723;51.206;3.326;2024-01-06T05:14:09;6.90;99.90
44990;DHT22;30723;51.206;3.326;2024-01-06T05:16:35;6.90;99.90
44990;DHT22;30723;51.206;3.326;2024-01-06T05:19:01;6.90;99.90
44990;DHT22;30723;51.206;3.326;2024-01-06T05:21:26;6.90;99.90
44990;DHT22;30723;51.206;3.326;2024-01-06T05:23:52;6.90;99.90
44990;DHT22;30723;51.206;3.326;2024-01-06T05:26:18;6.90;99.90
44990;DHT22;30723;51.206;3.326;2024-01-06T05:28:44;6.90;99.90
44990;DHT22;30723;51.206;3.326;2024-01-06T05:31:10;6.90;99.90
44990;DHT22;30723;51.206;3.326;2024-01-06T05:33:36;6.90;99.90
44990;DHT22;30723;51.206;3.326;2024-01-06T05:36:02;6.90;99.90
44990;DHT22;30723;51.206;3.326;2024-01-06T05:38:27;7.00;99.90
44990;DHT22;30723;51.206;3.326;2024-01-06T05:40:53;7.00;99.90
44990;DHT22;30723;51.206;3.326;2024-01-06T05:43:19;7.00;99.90
44990;DHT22;30723;51.206;3.326;2024-01-06T05:45:45;7.10;99.90
44990;DHT22;30723;51.206;3.326;2024-01-06T05:48:11;7.10;99.90
44990;DHT22;30723;51.206;3.326;2024-01-06T05:50:38;7.10;99.90
44990;DHT22;30723;51.206;3.326;2024-01-06T05:53:05;7.10;99.90
44990;DHT22;30723;51.206;3.326;2024-01-06T05:55:31;7.10;99.90
44990;DHT22;30723;51.206;3.326;2024-01-06T05:57:57;7.10;99.90
44990;DHT22;30723;51.206;3.326;2024-01-06T06:00:23;7.20;99.90
44990;DHT22;30723;51.206;3.326;2024-01-06T06:02:50;7.20;99.90
44990;DHT22;30723;51.206;3.326;2024-01-06T06:05:16;7.20;99.90
44990;DHT22;30723;51.206;3.326;2024-01-06T06:07:42;7.10;99.90
44990;DHT22;30723;51.206;3.326;2024-01-06T06:10:10;7.10;99.90
44990;DHT22;30723;51.206;3.326;2024-01-06T06:12:37;7.10;99.90
44990;DHT22;30723;51.206;3.326;2024-01-06T06:15:06;7.10;99.90
44990;DHT22;30723;51.206;3.326;2024-01-06T06:17:32;7.00;99.90
44990;DHT22;30723;51.206;3.326;2024-01-06T06:19:58;7.10;99.90
44990;DHT22;30723;51.206;3.326;2024-01-06T06:22:25;7.00;99.90
44990;DHT22;30723;51.206;3.326;2024-01-06T06:24:58;7.00;99.90
44990;DHT22;30723;51.206;3.326;2024-01-06T06:27:25;7.10;99.90
44990;DHT22;30723;51.206;3.326;2024-01-06T06:29:52;7.10;99.90
44990;DHT22;30723;51.206;3.326;2024-01-06T06:32:18;7.10;99.90
44990;DHT22;30723;51.206;3.326;2024-01-06T06:34:43;7.10;99.90
44990;DHT22;30723;51.206;3.326;2024-01-06T06:37:09;7.10;99.90
44990;DHT22;30723;51.206;3.326;2024-01-06T06:39:35;7.10;99.90
44990;DHT22;30723;51.206;3.326;2024-01-06T06:42:02;7.10;99.90
44990;DHT22;30723;51.206;3.326;2024-01-06T06:44:28;7.10;99.90
44990;DHT22;30723;51.206;3.326;2024-01-06T06:46:55;7.10;99.90
44990;DHT22;30723;51.206;3.326;2024-01-06T06:49:21;7.10;99.90
44990;DHT22;30723;51.206;3.326;2024-01-06T06:51:46;7.10;99.90
44990;DHT22;30723;51.206;3.326;2024-01-06T06:54:14;7.00;99.90
44990;DHT22;30723;51.206;3.326;2024-01-06T06:56:42;7.00;99.90
44990;DHT22;30723;51.206;3.326;2024-01-06T06:59:07;7.00;99.90
44990;DHT22;30723;51.206;3.326;2024-01-06T07:01:33;6.90;99.90
44990;DHT22;30723;51.206;3.326;2024-01-06T07:04:01;6.90;99.90
44990;DHT22;30723;51.206;3.326;2024-01-06T07:06:27;6.90;99.90
44990;DHT22;30723;51.206;3.326;2024-01-06T07:08:54;7.00;99.90
44990;DHT22;30723;51.206;3.326;2024-01-06T07:11:20;7.10;99.90
44990;DHT22;30723;51.206;3.326;2024-01-06T07:13:46;7.10;99.90
44990;DHT22;30723;51.206;3.326;2024-01-06T07:16:12;7.10;99.90
44990;DHT22;30723;51.206;3.326;2024-01-06T07:18:38;7.10;99.90
44990;DHT22;30723;51.206;3.326;2024-01-06T07:21:07;7.10;99.90
44990;DHT22;30723;51.206;3.326;2024-01-06T07:23:33;7.10;99.90
44990;DHT22;30723;51.206;3.326;2024-01-06T07:25:59;7.20;99.90
44990;DHT22;30723;51.206;3.326;2024-01-06T07:28:25;7.20;99.90
44990;DHT22;30723;51.206;3.326;2024-01-06T07:30:51;7.20;99.90
44990;DHT22;30723;51.206;3.326;2024-01-06T07:33:17;7.10;99.90
44990;DHT22;30723;51.206;3.326;2024-01-06T07:35:42;7.00;99.90
44990;DHT22;30723;51.206;3.326;2024-01-06T07:38:09;7.00;99.90
44990;DHT22;30723;51.206;3.326;2024-01-06T07:40:38;6.90;99.90
44990;DHT22;30723;51.206;3.326;2024-01-06T07:43:04;7.00;99.90
44990;DHT22;30723;51.206;3.326;2024-01-06T07:45:31;7.00;99.90
44990;DHT22;30723;51.206;3.326;2024-01-06T07:47:58;6.90;99.90
44990;DHT22;30723;51.206;3.326;2024-01-06T07:50:24;6.90;99.90
44990;DHT22;30723;51.206;3.326;2024-01-06T07:52:49;6.90;99.90
44990;DHT22;30723;51.206;3.326;2024-01-06T07:55:15;6.80;99.90
44990;DHT22;30723;51.206;3.326;2024-01-06T07:57:42;6.80;99.90
44990;DHT22;30723;51.206;3.326;2024-01-06T08:00:08;6.80;99.90
44990;DHT22;30723;51.206;3.326;2024-01-06T08:02:34;6.80;99.90
44990;DHT22;30723;51.206;3.326;2024-01-06T08:05:00;6.70;99.90
44990;DHT22;30723;51.206;3.326;2024-01-06T08:07:25;6.70;99.90
44990;DHT22;30723;51.206;3.326;2024-01-06T08:09:51;6.70;99.90
44990;DHT22;30723;51.206;3.326;2024-01-06T08:12:17;6.70;99.90
44990;DHT22;30723;51.206;3.326;2024-01-06T08:14:43;6.70;99.90
44990;DHT22;30723;51.206;3.326;2024-01-06T08:17:08;6.70;99.90
44990;DHT22;30723;51.206;3.326;2024-01-06T08:19:34;6.70;99.90
44990;DHT22;30723;51.206;3.326;2024-01-06T08:22:01;6.70;99.90
44990;DHT22;30723;51.206;3.326;2024-01-06T08:24:27;6.70;99.90
44990;DHT22;30723;51.206;3.326;2024-01-06T08:26:53;6.80;99.90
44990;DHT22;30723;51.206;3.326;2024-01-06T08:29:18;6.70;99.90
44990;DHT22;30723;51.206;3.326;2024-01-06T08:31:45;6.70;99.90
44990;DHT22;30723;51.206;3.326;2024-01-06T08:34:11;6.70;99.90
44990;DHT22;30723;51.206;3.326;2024-01-06T08:36:37;6.80;99.90
44990;DHT22;30723;51.206;3.326;2024-01-06T08:39:03;6.70;99.90
44990;DHT22;30723;51.206;3.326;2024-01-06T08:41:29;6.70;99.90
44990;DHT22;30723;51.206;3.326;2024-01-06T08:43:55;6.70;99.90
44990;DHT22;30723;51.206;3.326;2024-01-06T08:46:20;6.80;99.90
44990;DHT22;30723;51.206;3.326;2024-01-06T08:48:46;6.70;99.90
44990;DHT22;30723;51.206;3.326;2024-01-06T08:51:12;6.70;99.90
44990;DHT22;30723;51.206;3.326;2024-01-06T08:53:38;6.70;99.90
44990;DHT22;30723;51.206;3.326;2024-01-06T08:56:04;6.70;99.90
44990;DHT22;30723;51.206;3.326;2024-01-06T08:58:29;6.60;99.90
44990;DHT22;30723;51.206;3.326;2024-01-06T09:00:55;6.50;99.90
44990;DHT22;30723;51.206;3.326;2024-01-06T09:03:21;6.50;99.90
44990;DHT22;30723;51.206;3.326;2024-01-06T09:05:52;6.60;99.90
44990;DHT22;30723;51.206;3.326;2024-01-06T09:08:18;6.60;99.90
44990;DHT22;30723;51.206;3.326;2024-01-06T09:10:44;6.70;99.90
44990;DHT22;30723;51.206;3.326;2024-01-06T09:13:10;6.70;99.90
44990;DHT22;30723;51.206;3.326;2024-01-06T09:15:36;6.70;99.90
44990;DHT22;30723;51.206;3.326;2024-01-06T09:18:02;6.80;99.90
44990;DHT22;30723;51.206;3.326;2024-01-06T09:20:28;6.80;99.90
44990;DHT22;30723;51.206;3.326;2024-01-06T09:22:54;6.90;99.90
44990;DHT22;30723;51.206;3.326;2024-01-06T09:25:20;6.80;99.90
44990;DHT22;30723;51.206;3.326;2024-01-06T09:27:48;6.80;99.90
44990;DHT22;30723;51.206;3.326;2024-01-06T09:30:14;6.90;99.90
44990;DHT22;30723;51.206;3.326;2024-01-06T09:32:40;6.90;99.90
44990;DHT22;30723;51.206;3.326;2024-01-06T09:35:06;6.90;99.90
44990;DHT22;30723;51.206;3.326;2024-01-06T09:37:32;7.00;99.90
44990;DHT22;30723;51.206;3.326;2024-01-06T09:39:58;7.00;99.90
44990;DHT22;30723;51.206;3.326;2024-01-06T09:42:25;7.00;99.90
44990;DHT22;30723;51.206;3.326;2024-01-06T09:44:51;7.10;99.90
44990;DHT22;30723;51.206;3.326;2024-01-06T09:47:19;7.10;99.90
44990;DHT22;30723;51.206;3.326;2024-01-06T09:49:49;7.20;99.90
44990;DHT22;30723;51.206;3.326;2024-01-06T09:52:21;7.20;99.90
44990;DHT22;30723;51.206;3.326;2024-01-06T09:54:52;7.20;99.90
44990;DHT22;30723;51.206;3.326;2024-01-06T09:57:20;7.30;99.90
44990;DHT22;30723;51.206;3.326;2024-01-06T09:59:46;7.30;99.90
44990;DHT22;30723;51.206;3.326;2024-01-06T10:02:16;7.40;99.90
44990;DHT22;30723;51.206;3.326;2024-01-06T10:04:44;7.40;99.90
44990;DHT22;30723;51.206;3.326;2024-01-06T10:07:11;7.30;99.90
44990;DHT22;30723;51.206;3.326;2024-01-06T10:09:39;7.30;99.90
44990;DHT22;30723;51.206;3.326;2024-01-06T10:12:06;7.30;99.90
44990;DHT22;30723;51.206;3.326;2024-01-06T10:14:32;7.30;99.90
44990;DHT22;30723;51.206;3.326;2024-01-06T10:16:57;7.30;99.90
44990;DHT22;30723;51.206;3.326;2024-01-06T10:19:23;7.50;99.90
44990;DHT22;30723;51.206;3.326;2024-01-06T10:21:49;7.70;99.90
44990;DHT22;30723;51.206;3.326;2024-01-06T10:24:17;7.50;99.90
44990;DHT22;30723;51.206;3.326;2024-01-06T10:26:45;7.60;99.90
44990;DHT22;30723;51.206;3.326;2024-01-06T10:29:13;7.60;99.90
44990;DHT22;30723;51.206;3.326;2024-01-06T10:31:39;7.60;99.90
44990;DHT22;30723;51.206;3.326;2024-01-06T10:34:05;7.60;99.90
44990;DHT22;30723;51.206;3.326;2024-01-06T10:36:31;7.50;99.90
44990;DHT22;30723;51.206;3.326;2024-01-06T10:38:57;7.50;99.90
44990;DHT22;30723;51.206;3.326;2024-01-06T10:41:24;7.40;99.90
44990;DHT22;30723;51.206;3.326;2024-01-06T10:43:51;7.40;99.90
44990;DHT22;30723;51.206;3.326;2024-01-06T10:46:21;7.50;99.90
44990;DHT22;30723;51.206;3.326;2024-01-06T10:48:49;7.60;99.90
44990;DHT22;30723;51.206;3.326;2024-01-06T10:51:15;7.70;99.90
44990;DHT22;30723;51.206;3.326;2024-01-06T10:53:42;7.80;99.90
44990;DHT22;30723;51.206;3.326;2024-01-06T10:56:09;7.80;99.90
44990;DHT22;30723;51.206;3.326;2024-01-06T10:58:36;7.70;99.90
44990;DHT22;30723;51.206;3.326;2024-01-06T11:01:09;7.70;99.90
44990;DHT22;30723;51.206;3.326;2024-01-06T11:03:36;7.70;99.90
44990;DHT22;30723;51.206;3.326;2024-01-06T11:06:07;7.60;99.90
44990;DHT22;30723;51.206;3.326;2024-01-06T11:08:44;7.70;99.90
44990;DHT22;30723;51.206;3.326;2024-01-06T11:11:21;7.70;99.90
44990;DHT22;30723;51.206;3.326;2024-01-06T11:13:49;7.70;99.90
44990;DHT22;30723;51.206;3.326;2024-01-06T11:16:34;7.70;99.90
44990;DHT22;30723;51.206;3.326;2024-01-06T11:19:00;7.80;99.90
44990;DHT22;30723;51.206;3.326;2024-01-06T11:21:26;7.90;99.90
44990;DHT22;30723;51.206;3.326;2024-01-06T11:24:19;7.90;99.90
44990;DHT22;30723;51.206;3.326;2024-01-06T11:26:51;7.90;99.90
44990;DHT22;30723;51.206;3.326;2024-01-06T11:29:19;8.00;99.90
44990;DHT22;30723;51.206;3.326;2024-01-06T11:32:17;7.90;99.90
44990;DHT22;30723;51.206;3.326;2024-01-06T11:34:50;8.00;99.90
44990;DHT22;30723;51.206;3.326;2024-01-06T11:40:02;8.20;99.90
44990;DHT22;30723;51.206;3.326;2024-01-06T11:42:34;8.20;99.90
44990;DHT22;30723;51.206;3.326;2024-01-06T11:45:04;8.30;99.90
44990;DHT22;30723;51.206;3.326;2024-01-06T11:47:34;8.20;99.90
44990;DHT22;30723;51.206;3.326;2024-01-06T11:50:02;8.30;99.90
44990;DHT22;30723;51.206;3.326;2024-01-06T11:52:32;8.00;99.90
44990;DHT22;30723;51.206;3.326;2024-01-06T11:54:58;7.60;99.90
44990;DHT22;30723;51.206;3.326;2024-01-06T11:57:28;7.50;99.90
44990;DHT22;30723;51.206;3.326;2024-01-06T11:59:54;7.40;99.90
44990;DHT22;30723;51.206;3.326;2024-01-06T12:02:21;7.60;99.90
44990;DHT22;30723;51.206;3.326;2024-01-06T12:04:53;7.70;99.90
44990;DHT22;30723;51.206;3.326;2024-01-06T12:07:20;7.70;99.90
44990;DHT22;30723;51.206;3.326;2024-01-06T12:09:48;7.70;99.90
44990;DHT22;30723;51.206;3.326;2024-01-06T12:12:17;7.90;99.90
44990;DHT22;30723;51.206;3.326;2024-01-06T12:14:43;8.00;99.90
44990;DHT22;30723;51.206;3.326;2024-01-06T12:17:09;8.20;99.90
44990;DHT22;30723;51.206;3.326;2024-01-06T12:19:35;8.20;99.90
44990;DHT22;30723;51.206;3.326;2024-01-06T12:22:02;8.30;99.90
44990;DHT22;30723;51.206;3.326;2024-01-06T12:24:28;8.30;99.90
44990;DHT22;30723;51.206;3.326;2024-01-06T12:26:58;8.40;99.90
44990;DHT22;30723;51.206;3.326;2024-01-06T12:29:28;8.40;99.90
44990;DHT22;30723;51.206;3.326;2024-01-06T12:31:59;8.30;99.90
44990;DHT22;30723;51.206;3.326;2024-01-06T12:34:25;8.10;99.90
44990;DHT22;30723;51.206;3.326;2024-01-06T12:36:55;8.10;99.90
44990;DHT22;30723;51.206;3.326;2024-01-06T12:39:21;8.00;99.90
44990;DHT22;30723;51.206;3.326;2024-01-06T12:41:46;7.90;99.90
44990;DHT22;30723;51.206;3.326;2024-01-06T12:44:12;7.80;99.90
44990;DHT22;30723;51.206;3.326;2024-01-06T12:46:38;7.70;99.90
44990;DHT22;30723;51.206;3.326;2024-01-06T12:49:04;7.70;99.90
44990;DHT22;30723;51.206;3.326;2024-01-06T12:51:30;7.60;99.90
44990;DHT22;30723;51.206;3.326;2024-01-06T12:53:56;7.50;99.90
44990;DHT22;30723;51.206;3.326;2024-01-06T12:56:21;7.50;99.90
44990;DHT22;30723;51.206;3.326;2024-01-06T12:58:48;7.50;99.90
44990;DHT22;30723;51.206;3.326;2024-01-06T13:01:13;7.60;99.90
44990;DHT22;30723;51.206;3.326;2024-01-06T13:03:39;7.60;99.90
44990;DHT22;30723;51.206;3.326;2024-01-06T13:06:05;7.80;99.90
44990;DHT22;30723;51.206;3.326;2024-01-06T13:08:31;7.90;99.90
44990;DHT22;30723;51.206;3.326;2024-01-06T13:10:57;8.00;99.90
44990;DHT22;30723;51.206;3.326;2024-01-06T13:13:23;8.00;99.90
44990;DHT22;30723;51.206;3.326;2024-01-06T13:15:48;8.00;99.90
44990;DHT22;30723;51.206;3.326;2024-01-06T13:18:14;7.80;99.90
44990;DHT22;30723;51.206;3.326;2024-01-06T13:20:42;7.70;99.90
44990;DHT22;30723;51.206;3.326;2024-01-06T13:23:09;7.70;99.90
44990;DHT22;30723;51.206;3.326;2024-01-06T13:25:35;7.60;99.90
44990;DHT22;30723;51.206;3.326;2024-01-06T13:28:01;7.50;99.90
44990;DHT22;30723;51.206;3.326;2024-01-06T13:30:27;7.50;99.90
44990;DHT22;30723;51.206;3.326;2024-01-06T13:32:53;7.50;99.90
44990;DHT22;30723;51.206;3.326;2024-01-06T13:35:20;7.60;99.90
44990;DHT22;30723;51.206;3.326;2024-01-06T13:37:49;7.60;99.90
44990;DHT22;30723;51.206;3.326;2024-01-06T13:40:17;7.60;99.90
44990;DHT22;30723;51.206;3.326;2024-01-06T13:42:48;7.60;99.90
44990;DHT22;30723;51.206;3.326;2024-01-06T13:45:14;7.60;99.90
44990;DHT22;30723;51.206;3.326;2024-01-06T13:47:41;7.60;99.90
44990;DHT22;30723;51.206;3.326;2024-01-06T13:50:14;7.60;99.90
44990;DHT22;30723;51.206;3.326;2024-01-06T13:52:41;7.60;99.90
44990;DHT22;30723;51.206;3.326;2024-01-06T13:55:07;7.50;99.90
44990;DHT22;30723;51.206;3.326;2024-01-06T13:57:34;7.40;99.90
44990;DHT22;30723;51.206;3.326;2024-01-06T14:00:00;7.40;99.90
44990;DHT22;30723;51.206;3.326;2024-01-06T14:02:26;7.60;99.90
44990;DHT22;30723;51.206;3.326;2024-01-06T14:04:52;7.70;99.90
44990;DHT22;30723;51.206;3.326;2024-01-06T14:07:18;7.80;99.90
44990;DHT22;30723;51.206;3.326;2024-01-06T14:09:45;7.70;99.90
44990;DHT22;30723;51.206;3.326;2024-01-06T14:12:11;7.70;99.90
44990;DHT22;30723;51.206;3.326;2024-01-06T14:14:39;7.70;99.90
44990;DHT22;30723;51.206;3.326;2024-01-06T14:17:07;7.50;99.90
44990;DHT22;30723;51.206;3.326;2024-01-06T14:19:32;7.50;99.90
44990;DHT22;30723;51.206;3.326;2024-01-06T14:21:58;7.40;99.90
44990;DHT22;30723;51.206;3.326;2024-01-06T14:24:24;7.40;99.90
44990;DHT22;30723;51.206;3.326;2024-01-06T14:26:50;7.40;99.90
44990;DHT22;30723;51.206;3.326;2024-01-06T14:29:19;7.30;99.90
44990;DHT22;30723;51.206;3.326;2024-01-06T14:31:45;7.20;99.90
44990;DHT22;30723;51.206;3.326;2024-01-06T14:34:11;7.10;99.90
44990;DHT22;30723;51.206;3.326;2024-01-06T14:36:37;7.20;99.90
44990;DHT22;30723;51.206;3.326;2024-01-06T14:39:03;7.10;99.90
44990;DHT22;30723;51.206;3.326;2024-01-06T14:41:32;7.00;99.90
44990;DHT22;30723;51.206;3.326;2024-01-06T14:43:58;6.90;99.90
44990;DHT22;30723;51.206;3.326;2024-01-06T14:46:24;6.80;99.90
44990;DHT22;30723;51.206;3.326;2024-01-06T14:48:50;6.70;99.90
44990;DHT22;30723;51.206;3.326;2024-01-06T14:51:17;6.60;99.90
44990;DHT22;30723;51.206;3.326;2024-01-06T14:53:43;6.60;99.90
44990;DHT22;30723;51.206;3.326;2024-01-06T14:56:09;6.50;99.90
44990;DHT22;30723;51.206;3.326;2024-01-06T14:58:34;6.50;99.90
44990;DHT22;30723;51.206;3.326;2024-01-06T15:01:00;6.40;99.90
44990;DHT22;30723;51.206;3.326;2024-01-06T15:03:26;6.40;99.90
44990;DHT22;30723;51.206;3.326;2024-01-06T15:05:52;6.40;99.90
44990;DHT22;30723;51.206;3.326;2024-01-06T15:08:18;6.40;99.90
44990;DHT22;30723;51.206;3.326;2024-01-06T15:10:43;6.40;99.90
44990;DHT22;30723;51.206;3.326;2024-01-06T15:13:09;6.40;99.90
44990;DHT22;30723;51.206;3.326;2024-01-06T15:15:35;6.40;99.90
44990;DHT22;30723;51.206;3.326;2024-01-06T15:18:01;6.40;99.90
44990;DHT22;30723;51.206;3.326;2024-01-06T15:20:26;6.40;99.90
44990;DHT22;30723;51.206;3.326;2024-01-06T15:22:53;6.40;99.90
44990;DHT22;30723;51.206;3.326;2024-01-06T15:25:19;6.40;99.90
44990;DHT22;30723;51.206;3.326;2024-01-06T15:27:45;6.40;99.90
44990;DHT22;30723;51.206;3.326;2024-01-06T15:30:13;6.40;99.90
44990;DHT22;30723;51.206;3.326;2024-01-06T15:32:41;6.50;99.90
44990;DHT22;30723;51.206;3.326;2024-01-06T15:35:08;6.50;99.90
44990;DHT22;30723;51.206;3.326;2024-01-06T15:37:35;6.50;99.90
44990;DHT22;30723;51.206;3.326;2024-01-06T15:40:02;6.50;99.90
44990;DHT22;30723;51.206;3.326;2024-01-06T15:42:28;6.50;99.90
44990;DHT22;30723;51.206;3.326;2024-01-06T15:44:54;6.40;99.90